createdAt,value
2018-07-28T00:02:07.236Z,71.19
2018-07-28T00:04:40.451Z,70.84
2018-07-28T00:07:07.803Z,71.72
2018-07-28T00:09:34.837Z,71.36
2018-07-28T00:12:02.003Z,71.72
2018-07-28T00:14:30.968Z,71.49
2018-07-28T00:16:58.754Z,70.16
2018-07-28T00:19:25.850Z,71.26
2018-07-28T00:21:52.928Z,69.21
2018-07-28T00:24:20.359Z,67.21
2018-07-28T00:26:49.176Z,69.72
2018-07-28T00:29:19.820Z,67.26
2018-07-28T00:31:49.861Z,68.56
2018-07-28T00:34:17.022Z,68.73
2018-07-28T00:36:44.126Z,70.13
2018-07-28T00:39:13.013Z,70.88
2018-07-28T00:41:43.155Z,69.42
2018-07-28T00:44:11.221Z,70.38
2018-07-28T00:46:39.664Z,68.91
2018-07-28T00:49:08.674Z,69.29
2018-07-28T00:51:37.698Z,71.25
2018-07-28T00:54:04.776Z,70.76
2018-07-28T00:56:32.135Z,70.23
2018-07-28T00:58:59.341Z,68.61
2018-07-28T01:01:27.270Z,70.89
2018-07-28T01:03:55.260Z,68.40
2018-07-28T01:06:22.408Z,68.08
2018-07-28T01:08:49.694Z,70.72
2018-07-28T01:11:18.691Z,72.05
2018-07-28T01:13:46.284Z,70.32
2018-07-28T01:16:15.299Z,70.98
2018-07-28T01:18:43.416Z,72.53
2018-07-28T01:21:11.620Z,72.66
2018-07-28T01:23:40.805Z,73.54
2018-07-28T01:26:09.913Z,73.12
2018-07-28T01:28:42.711Z,72.66
2018-07-28T01:31:09.950Z,72.32
2018-07-28T01:33:37.964Z,69.83
2018-07-28T01:36:05.061Z,72.58
2018-07-28T01:38:32.100Z,73.24
2018-07-28T01:40:59.276Z,73.69
2018-07-28T01:43:28.252Z,73.46
2018-07-28T01:45:55.294Z,72.82
2018-07-28T01:48:23.209Z,74.06
2018-07-28T01:50:51.313Z,74.06
2018-07-28T01:53:19.718Z,72.96
2018-07-28T01:55:48.943Z,73.42
2018-07-28T01:58:20.644Z,73.55
2018-07-28T02:00:47.901Z,73.97
2018-07-28T02:03:15.231Z,73.13
2018-07-28T02:05:42.348Z,71.19
2018-07-28T02:08:11.255Z,71.26
2018-07-28T02:10:40.215Z,69.47
2018-07-28T02:13:08.295Z,70.14
2018-07-28T02:15:36.316Z,71.89
2018-07-28T02:18:04.312Z,73.14
2018-07-28T02:20:31.400Z,74.46
2018-07-28T02:22:59.267Z,74.63
2018-07-28T02:25:26.524Z,75.09
2018-07-28T02:27:53.952Z,74.30
2018-07-28T02:30:22.042Z,73.30
2018-07-28T02:32:49.479Z,71.66
2018-07-28T02:35:16.641Z,71.95
2018-07-28T02:37:43.710Z,73.68
2018-07-28T02:40:10.774Z,71.39
2018-07-28T02:42:38.889Z,72.13
2018-07-28T02:45:05.960Z,70.51
2018-07-28T02:47:33.018Z,70.64
2018-07-28T02:50:00.798Z,72.51
2018-07-28T02:52:27.926Z,72.95
2018-07-28T02:54:56.848Z,74.81
2018-07-28T02:57:26.962Z,74.59
2018-07-28T02:59:54.844Z,72.88
2018-07-28T03:02:21.987Z,72.27
2018-07-28T03:04:50.104Z,73.41
2018-07-28T03:07:17.191Z,73.45
2018-07-28T03:09:44.252Z,73.67
2018-07-28T03:12:11.276Z,75.47
2018-07-28T03:14:38.458Z,77.11
2018-07-28T03:17:05.621Z,76.41
2018-07-28T03:19:32.872Z,76.32
2018-07-28T03:22:03.933Z,77.09
2018-07-28T03:24:31.039Z,77.15
2018-07-28T03:26:58.153Z,76.42
2018-07-28T03:29:25.245Z,76.84
2018-07-28T03:31:52.321Z,76.51
2018-07-28T03:34:20.186Z,76.38
2018-07-28T03:36:47.296Z,77.12
2018-07-28T03:39:18.166Z,76.39
2018-07-28T03:41:45.752Z,77.30
2018-07-28T03:44:12.869Z,77.69
2018-07-28T03:46:43.742Z,77.30
2018-07-28T03:49:10.878Z,78.77
2018-07-28T03:51:40.846Z,78.25
2018-07-28T03:54:08.084Z,77.40
2018-07-28T03:56:35.243Z,75.27
2018-07-28T03:59:02.329Z,75.17
2018-07-28T04:01:29.383Z,73.28
2018-07-28T04:03:57.228Z,73.07
2018-07-28T04:06:24.360Z,73.84
2018-07-28T04:08:51.417Z,70.31
2018-07-28T04:11:18.542Z,69.33
2018-07-28T04:13:48.615Z,71.12
2018-07-28T04:16:19.564Z,70.70
2018-07-28T04:18:52.762Z,69.70
2018-07-28T04:21:20.810Z,70.64
2018-07-28T04:23:47.899Z,70.96
2018-07-28T04:26:15.113Z,70.41
2018-07-28T04:28:43.785Z,69.83
2018-07-28T04:31:17.241Z,69.92
2018-07-28T04:33:44.360Z,68.06
2018-07-28T04:36:13.274Z,69.56
2018-07-28T04:38:41.274Z,68.22
2018-07-28T04:41:08.348Z,66.33
2018-07-28T04:43:35.419Z,67.23
2018-07-28T04:46:03.527Z,63.59
2018-07-28T04:48:32.335Z,64.04
2018-07-28T04:50:59.418Z,63.59
2018-07-28T04:53:26.524Z,63.32
2018-07-28T04:55:54.577Z,59.97
2018-07-28T04:58:21.652Z,62.25
2018-07-28T05:00:52.144Z,60.03
2018-07-28T05:03:19.280Z,58.54
2018-07-28T05:05:46.390Z,60.63
2018-07-28T05:08:13.442Z,60.61
2018-07-28T05:10:40.753Z,59.70
2018-07-28T05:13:08.932Z,59.65
2018-07-28T05:15:36.826Z,59.46
2018-07-28T05:18:08.548Z,56.58
2018-07-28T05:20:35.646Z,54.39
2018-07-28T05:23:02.790Z,55.17
2018-07-28T05:25:31.762Z,54.37
2018-07-28T05:27:59.857Z,52.08
2018-07-28T05:30:27.869Z,51.11
2018-07-28T05:32:55.044Z,49.71
2018-07-28T05:35:22.210Z,52.77
2018-07-28T05:37:49.952Z,53.37
2018-07-28T05:40:17.152Z,53.70
2018-07-28T05:42:48.349Z,54.72
2018-07-28T05:45:17.316Z,54.79
2018-07-28T05:47:45.370Z,56.04
2018-07-28T05:50:12.518Z,57.16
2018-07-28T05:52:44.202Z,57.00
2018-07-28T05:55:17.417Z,57.98
2018-07-28T05:57:45.461Z,61.37
2018-07-28T06:00:15.568Z,63.20
2018-07-28T06:02:42.670Z,64.92
2018-07-28T06:05:09.739Z,64.81
2018-07-28T06:07:36.900Z,63.50
2018-07-28T06:10:04.140Z,64.07
2018-07-28T06:12:31.451Z,62.29
2018-07-28T06:14:59.496Z,62.63
2018-07-28T06:17:29.589Z,63.07
2018-07-28T06:19:57.273Z,61.88
2018-07-28T06:22:24.332Z,62.58
2018-07-28T06:24:51.400Z,61.99
2018-07-28T06:27:18.544Z,62.09
2018-07-28T06:29:45.637Z,61.88
2018-07-28T06:32:12.745Z,61.77
2018-07-28T06:34:41.314Z,62.87
2018-07-28T06:37:09.491Z,65.46
2018-07-28T06:39:36.725Z,69.24
2018-07-28T06:42:06.793Z,70.87
2018-07-28T06:44:33.924Z,72.65
2018-07-28T06:47:01.155Z,73.00
2018-07-28T06:49:28.276Z,73.49
2018-07-28T06:51:55.982Z,72.33
2018-07-28T06:54:23.964Z,70.76
2018-07-28T06:56:52.960Z,71.88
2018-07-28T06:59:20.094Z,70.36
2018-07-28T07:01:53.060Z,71.33
2018-07-28T07:04:20.872Z,68.32
2018-07-28T07:06:53.975Z,67.86
2018-07-28T07:09:21.972Z,70.71
2018-07-28T07:11:49.020Z,69.67
2018-07-28T07:14:16.123Z,69.75
2018-07-28T07:16:47.085Z,70.83
2018-07-28T07:19:14.277Z,68.40
2018-07-28T07:21:42.989Z,68.49
2018-07-28T07:24:10.228Z,66.25
2018-07-28T07:26:38.417Z,66.33
2018-07-28T07:29:05.661Z,65.20
2018-07-28T07:31:34.817Z,64.77
2018-07-28T07:34:03.947Z,64.10
2018-07-28T07:36:31.042Z,63.10
2018-07-28T07:38:58.076Z,61.86
2018-07-28T07:41:25.186Z,64.14
2018-07-28T07:43:52.487Z,63.98
2018-07-28T07:46:19.616Z,63.13
2018-07-28T07:48:46.718Z,62.12
2018-07-28T07:51:13.781Z,59.90
2018-07-28T07:53:42.581Z,59.50
2018-07-28T07:56:09.725Z,58.82
2018-07-28T07:58:38.446Z,59.62
2018-07-28T08:01:07.608Z,59.01
2018-07-28T08:03:34.777Z,59.69
2018-07-28T08:06:01.948Z,57.10
2018-07-28T08:08:29.007Z,58.08
2018-07-28T08:10:56.088Z,56.75
2018-07-28T08:13:25.046Z,57.14
2018-07-28T08:15:52.936Z,55.85
2018-07-28T08:18:23.123Z,55.66
2018-07-28T08:20:51.132Z,55.75
2018-07-28T08:23:18.961Z,53.59
2018-07-28T08:25:46.022Z,54.91
2018-07-28T08:28:13.341Z,54.29
2018-07-28T08:30:41.941Z,54.49
2018-07-28T08:33:08.984Z,55.06
2018-07-28T08:35:36.047Z,55.06
2018-07-28T08:38:04.555Z,53.92
2018-07-28T08:40:32.430Z,55.74
2018-07-28T08:42:59.618Z,56.56
2018-07-28T08:45:26.750Z,56.23
2018-07-28T08:47:53.895Z,54.57
2018-07-28T08:50:21.134Z,55.07
2018-07-28T08:52:48.255Z,51.61
2018-07-28T08:55:15.395Z,52.96
2018-07-28T08:57:42.599Z,52.02
2018-07-28T09:00:10.617Z,52.64
2018-07-28T09:02:38.452Z,52.95
2018-07-28T09:05:07.487Z,53.50
2018-07-28T09:07:34.644Z,52.07
2018-07-28T09:10:01.773Z,50.44
2018-07-28T09:12:29.021Z,49.05
2018-07-28T09:14:57.004Z,48.33
2018-07-28T09:17:25.062Z,46.65
2018-07-28T09:19:52.167Z,45.65
2018-07-28T09:22:21.112Z,46.95
2018-07-28T09:24:49.977Z,45.61
2018-07-28T09:27:17.035Z,46.85
2018-07-28T09:29:44.100Z,47.72
2018-07-28T09:32:11.245Z,47.58
2018-07-28T09:34:39.024Z,47.92
2018-07-28T09:37:07.060Z,48.46
2018-07-28T09:39:34.221Z,46.75
2018-07-28T09:42:02.024Z,44.65
2018-07-28T09:44:29.150Z,44.86
2018-07-28T09:46:56.263Z,46.36
2018-07-28T09:49:23.401Z,44.27
2018-07-28T09:51:51.291Z,45.19
2018-07-28T09:54:18.361Z,44.63
2018-07-28T09:56:45.496Z,43.63
2018-07-28T09:59:12.682Z,42.21
2018-07-28T10:01:39.850Z,41.40
2018-07-28T10:04:08.017Z,42.14
2018-07-28T10:06:35.076Z,43.96
2018-07-28T10:09:02.144Z,44.33
2018-07-28T10:11:29.219Z,44.49
2018-07-28T10:13:56.362Z,44.18
2018-07-28T10:16:23.666Z,42.76
2018-07-28T10:18:50.655Z,43.14
2018-07-28T10:21:17.898Z,45.76
2018-07-28T10:23:47.034Z,45.29
2018-07-28T10:26:14.197Z,44.80
2018-07-28T10:28:41.290Z,45.30
2018-07-28T10:31:12.138Z,44.45
2018-07-28T10:33:40.296Z,44.46
2018-07-28T10:36:07.561Z,44.04
2018-07-28T10:38:34.629Z,43.90
2018-07-28T10:41:01.775Z,45.60
2018-07-28T10:43:28.844Z,44.74
2018-07-28T10:45:55.962Z,45.21
2018-07-28T10:48:25.065Z,43.88
2018-07-28T10:50:53.424Z,44.18
2018-07-28T10:53:22.080Z,43.68
2018-07-28T10:55:49.211Z,44.00
2018-07-28T10:58:16.298Z,43.04
2018-07-28T11:00:44.380Z,42.18
2018-07-28T11:03:11.447Z,42.05
2018-07-28T11:05:38.547Z,42.48
2018-07-28T11:08:06.671Z,40.21
2018-07-28T11:10:34.535Z,40.29
2018-07-28T11:13:02.516Z,38.39
2018-07-28T11:15:29.601Z,38.49
2018-07-28T11:17:56.717Z,39.83
2018-07-28T11:20:24.871Z,40.42
2018-07-28T11:22:52.542Z,40.95
2018-07-28T11:25:19.696Z,40.97
2018-07-28T11:27:46.885Z,40.52
2018-07-28T11:30:13.966Z,41.42
2018-07-28T11:32:52.748Z,41.11
2018-07-28T11:35:31.517Z,40.93
2018-07-28T11:38:20.620Z,40.77
2018-07-28T11:40:59.432Z,41.34
2018-07-28T11:43:38.875Z,42.74
2018-07-28T11:46:05.967Z,43.04
2018-07-28T11:48:33.143Z,42.93
2018-07-28T11:51:00.210Z,43.74
2018-07-28T11:53:27.277Z,42.07
2018-07-28T11:55:54.369Z,43.01
2018-07-28T11:58:22.114Z,43.78
2018-07-28T12:00:50.147Z,45.03
2018-07-28T12:03:17.229Z,43.89
2018-07-28T12:05:46.321Z,44.70
2018-07-28T12:08:13.351Z,42.65
2018-07-28T12:10:40.486Z,42.47
2018-07-28T12:13:07.588Z,41.56
2018-07-28T12:15:34.862Z,42.21
2018-07-28T12:18:05.688Z,42.69
2018-07-28T12:20:32.751Z,42.57
2018-07-28T12:23:00.856Z,43.28
2018-07-28T12:25:28.025Z,42.81
2018-07-28T12:27:55.108Z,43.40
2018-07-28T12:30:22.158Z,41.77
2018-07-28T12:32:49.284Z,42.57
2018-07-28T12:35:17.139Z,41.53
2018-07-28T12:37:44.380Z,41.45
2018-07-28T12:40:11.485Z,41.69
2018-07-28T12:42:38.626Z,41.60
2018-07-28T12:45:05.879Z,41.20
2018-07-28T12:47:33.040Z,41.13
2018-07-28T12:50:00.224Z,41.30
2018-07-28T12:52:27.303Z,41.39
2018-07-28T12:54:57.822Z,40.58
2018-07-28T12:57:25.407Z,40.13
2018-07-28T12:59:54.235Z,41.29
2018-07-28T13:02:21.326Z,41.49
2018-07-28T13:04:48.500Z,41.01
2018-07-28T13:07:15.544Z,42.28
2018-07-28T13:09:42.630Z,42.48
2018-07-28T13:12:09.700Z,42.27
2018-07-28T13:14:38.621Z,42.22
2018-07-28T13:17:05.718Z,41.71
2018-07-28T13:19:32.788Z,41.71
2018-07-28T13:21:59.973Z,42.88
2018-07-28T13:24:27.597Z,41.74
2018-07-28T13:26:54.758Z,41.37
2018-07-28T13:29:23.674Z,42.15
2018-07-28T13:31:50.786Z,41.41
2018-07-28T13:34:17.873Z,41.62
2018-07-28T13:36:45.583Z,41.83
2018-07-28T13:39:12.764Z,41.61
2018-07-28T13:41:48.206Z,40.64
2018-07-28T13:44:15.254Z,42.28
2018-07-28T13:46:45.569Z,42.03
2018-07-28T13:49:12.666Z,42.16
2018-07-28T13:51:39.776Z,40.09
2018-07-28T13:54:06.928Z,40.39
2018-07-28T13:56:34.059Z,39.22
2018-07-28T13:59:01.715Z,39.03
2018-07-28T14:01:37.607Z,39.03
2018-07-28T14:04:05.678Z,38.90
2018-07-28T14:06:32.804Z,38.84
2018-07-28T14:09:00.731Z,38.86
2018-07-28T14:11:27.828Z,39.54
2018-07-28T14:13:54.917Z,39.35
2018-07-28T14:16:21.943Z,39.27
2018-07-28T14:18:49.036Z,39.75
2018-07-28T14:21:20.789Z,40.10
2018-07-28T14:23:48.805Z,39.80
2018-07-28T14:26:15.904Z,40.19
2018-07-28T14:28:42.967Z,39.95
2018-07-28T14:31:10.045Z,38.96
2018-07-28T14:33:37.241Z,37.97
2018-07-28T14:36:10.631Z,38.32
2018-07-28T14:38:37.757Z,38.86
2018-07-28T14:41:06.775Z,38.62
2018-07-28T14:43:33.919Z,37.87
2018-07-28T14:46:07.351Z,37.35
2018-07-28T14:48:41.626Z,37.76
2018-07-28T14:51:09.669Z,37.66
2018-07-28T14:53:36.808Z,39.32
2018-07-28T14:56:03.995Z,40.31
2018-07-28T14:58:33.135Z,38.91
2018-07-28T15:01:01.171Z,40.37
2018-07-28T15:03:28.333Z,40.19
2018-07-28T15:06:01.696Z,39.75
2018-07-28T15:08:29.896Z,39.75
2018-07-28T15:11:01.037Z,39.63
2018-07-28T15:13:29.140Z,40.26
2018-07-28T15:15:57.182Z,40.59
2018-07-28T15:18:41.186Z,41.16
2018-07-28T15:21:09.292Z,41.96
2018-07-28T15:23:36.410Z,41.53
2018-07-28T15:26:03.635Z,41.85
2018-07-28T15:28:31.149Z,43.55
2018-07-28T15:30:58.409Z,42.63
2018-07-28T15:33:26.515Z,41.86
2018-07-28T15:35:54.339Z,42.00
2018-07-28T15:38:22.368Z,42.51
2018-07-28T15:40:49.427Z,42.11
2018-07-28T15:43:17.607Z,41.70
2018-07-28T15:45:47.887Z,43.44
2018-07-28T15:48:16.031Z,43.06
2018-07-28T15:50:43.801Z,43.22
2018-07-28T15:53:10.978Z,43.38
2018-07-28T15:55:38.267Z,43.16
2018-07-28T15:58:05.495Z,44.02
2018-07-28T16:00:32.698Z,43.83
2018-07-28T16:02:59.844Z,43.94
2018-07-28T16:05:30.011Z,44.50
2018-07-28T16:10:27.328Z,44.54
2018-07-28T16:12:54.394Z,44.06
2018-07-28T16:15:21.884Z,44.93
2018-07-28T16:17:50.877Z,44.62
2018-07-28T16:20:17.937Z,45.15
2018-07-28T16:22:44.989Z,46.09
2018-07-28T16:25:12.303Z,45.94
2018-07-28T16:27:39.499Z,46.79
2018-07-28T16:30:07.907Z,46.11
2018-07-28T16:32:35.701Z,45.90
2018-07-28T16:35:07.059Z,43.85
2018-07-28T16:37:35.970Z,44.44
2018-07-28T16:40:03.280Z,44.54
2018-07-28T16:42:31.390Z,44.90
2018-07-28T16:45:00.516Z,45.22
2018-07-28T16:47:30.626Z,45.19
2018-07-28T16:49:57.728Z,45.88
2018-07-28T16:52:24.981Z,45.95
2018-07-28T16:54:52.407Z,46.89
2018-07-28T16:57:20.842Z,47.61
2018-07-28T16:59:47.952Z,48.60
2018-07-28T17:02:16.910Z,48.11
2018-07-28T17:04:44.994Z,48.27
2018-07-28T17:07:12.182Z,47.76
2018-07-28T17:09:42.283Z,47.59
2018-07-28T17:12:09.407Z,47.49
2018-07-28T17:14:36.547Z,47.92
2018-07-28T17:17:03.886Z,46.92
2018-07-28T17:19:31.193Z,47.26
2018-07-28T17:21:58.805Z,47.42
2018-07-28T17:24:29.868Z,47.68
2018-07-28T17:27:04.329Z,47.36
2018-07-28T17:29:35.514Z,48.70
2018-07-28T17:32:02.644Z,48.11
2018-07-28T17:34:29.827Z,47.77
2018-07-28T17:36:57.900Z,46.93
2018-07-28T17:39:25.917Z,48.64
2018-07-28T17:41:53.920Z,48.94
2018-07-28T17:44:24.131Z,48.17
2018-07-28T17:46:51.197Z,47.73
2018-07-28T17:49:18.310Z,48.81
2018-07-28T17:51:45.381Z,49.81
2018-07-28T17:54:13.414Z,49.33
2018-07-28T17:56:40.623Z,49.07
2018-07-28T17:59:08.666Z,49.44
2018-07-28T18:01:35.746Z,48.62
2018-07-28T18:04:03.014Z,47.26
2018-07-28T18:06:33.136Z,45.97
2018-07-28T18:09:04.903Z,42.90
2018-07-28T18:11:32.165Z,40.19
2018-07-28T18:13:59.234Z,41.53
2018-07-28T18:16:27.428Z,42.90
2018-07-28T18:18:55.483Z,45.08
2018-07-28T18:21:22.758Z,45.87
2018-07-28T18:23:49.992Z,48.64
2018-07-28T18:26:17.156Z,48.79
2018-07-28T18:28:50.401Z,47.46
2018-07-28T18:31:19.287Z,48.79
2018-07-28T18:33:46.540Z,48.17
2018-07-28T18:36:14.487Z,48.40
2018-07-28T18:38:41.701Z,46.53
2018-07-28T18:41:08.984Z,46.79
2018-07-28T18:43:40.316Z,46.12
2018-07-28T18:46:09.391Z,46.63
2018-07-28T18:48:37.424Z,47.44
2018-07-28T18:51:05.652Z,48.87
2018-07-28T18:53:32.910Z,48.86
2018-07-28T18:56:00.268Z,48.79
2018-07-28T18:58:27.399Z,50.19
2018-07-28T19:00:54.663Z,50.12
2018-07-28T19:03:21.765Z,50.80
2018-07-28T19:05:48.822Z,52.06
2018-07-28T19:08:15.948Z,52.42
2018-07-28T19:10:43.212Z,53.07
2018-07-28T19:13:16.515Z,52.21
2018-07-28T19:15:44.391Z,53.24
2018-07-28T19:18:17.182Z,54.73
2018-07-28T19:20:44.418Z,53.98
2018-07-28T19:23:17.103Z,54.86
2018-07-28T19:25:44.171Z,55.56
2018-07-28T19:28:17.060Z,56.05
2018-07-28T19:30:44.102Z,55.62
2018-07-28T19:33:11.241Z,55.54
2018-07-28T19:35:44.189Z,56.60
2018-07-28T19:38:11.244Z,56.84
2018-07-28T19:40:38.335Z,56.82
2018-07-28T19:43:05.388Z,57.74
2018-07-28T19:45:32.440Z,59.59
2018-07-28T19:47:59.621Z,59.51
2018-07-28T19:50:26.726Z,59.15
2018-07-28T19:52:53.892Z,58.98
2018-07-28T19:55:20.949Z,59.90
2018-07-28T19:57:48.093Z,60.84
2018-07-28T20:00:15.203Z,61.77
2018-07-28T20:02:42.447Z,60.00
2018-07-28T20:05:09.634Z,61.51
2018-07-28T20:07:37.802Z,62.60
2018-07-28T20:10:05.950Z,62.23
2018-07-28T20:12:33.009Z,63.18
2018-07-28T20:15:00.214Z,63.20
2018-07-28T20:17:27.284Z,63.79
2018-07-28T20:19:54.957Z,64.36
2018-07-28T20:22:22.021Z,63.97
2018-07-28T20:24:49.094Z,64.00
2018-07-28T20:27:16.288Z,65.32
2018-07-28T20:29:43.298Z,66.24
2018-07-28T20:32:10.409Z,65.14
2018-07-28T20:34:37.904Z,65.56
2018-07-28T20:37:05.083Z,66.56
2018-07-28T20:39:32.305Z,66.77
2018-07-28T20:42:00.281Z,67.22
2018-07-28T20:44:28.439Z,67.20
2018-07-28T20:46:55.669Z,66.18
2018-07-28T20:49:22.741Z,66.17
2018-07-28T20:51:49.903Z,65.83
2018-07-28T20:54:17.009Z,66.94
2018-07-28T20:56:44.014Z,66.99
2018-07-28T20:59:11.033Z,67.41
2018-07-28T21:01:38.017Z,67.06
2018-07-28T21:04:05.140Z,66.98
2018-07-28T21:06:32.148Z,66.26
2018-07-28T21:08:59.148Z,66.66
2018-07-28T21:11:26.118Z,66.84
2018-07-28T21:13:53.162Z,65.91
2018-07-28T21:16:20.226Z,66.17
2018-07-28T21:18:47.199Z,66.94
2018-07-28T21:21:14.177Z,68.32
2018-07-28T21:23:41.185Z,68.99
2018-07-28T21:26:08.220Z,69.30
2018-07-28T21:28:35.212Z,68.76
2018-07-28T21:31:02.192Z,69.58
2018-07-28T21:33:29.440Z,69.32
2018-07-28T21:35:56.451Z,69.84
2018-07-28T21:38:23.433Z,69.42
2018-07-28T21:40:50.438Z,70.73
2018-07-28T21:43:17.676Z,71.14
2018-07-28T21:45:44.680Z,71.39
2018-07-28T21:48:11.689Z,71.86
2018-07-28T21:50:38.725Z,71.17
2018-07-28T21:53:05.707Z,69.86
2018-07-28T21:55:32.841Z,71.44
2018-07-28T21:57:59.815Z,70.99
2018-07-28T22:00:30.017Z,71.45
2018-07-28T22:02:57.017Z,72.10
2018-07-28T22:05:24.026Z,72.66
2018-07-28T22:07:51.319Z,72.88
2018-07-28T22:10:18.319Z,72.71
2018-07-28T22:12:45.284Z,72.96
2018-07-28T22:15:12.261Z,74.17
2018-07-28T22:17:39.288Z,73.67
2018-07-28T22:20:06.277Z,73.65
2018-07-28T22:22:33.245Z,72.58
2018-07-28T22:25:00.223Z,72.94
2018-07-28T22:27:27.264Z,73.13
2018-07-28T22:29:54.232Z,74.39
2018-07-28T22:32:21.243Z,74.07
2018-07-28T22:34:48.236Z,74.86
2018-07-28T22:37:15.205Z,74.32
2018-07-28T22:39:42.197Z,74.69
2018-07-28T22:42:09.180Z,74.73
2018-07-28T22:44:36.172Z,75.31
2018-07-28T22:47:03.241Z,75.24
2018-07-28T22:49:30.244Z,75.14
2018-07-28T22:51:57.377Z,76.47
2018-07-28T22:54:24.425Z,76.63
2018-07-28T22:56:51.477Z,76.44
2018-07-28T22:59:18.449Z,77.72
2018-07-28T23:01:45.421Z,77.61
2018-07-28T23:04:12.408Z,78.57
2018-07-28T23:06:39.384Z,77.66
2018-07-28T23:09:07.990Z,76.25
2018-07-28T23:11:35.047Z,76.13
2018-07-28T23:14:02.164Z,76.77
2018-07-28T23:16:29.143Z,77.60
2018-07-28T23:18:56.118Z,77.87
2018-07-28T23:21:23.144Z,77.49
2018-07-28T23:23:50.118Z,77.31
2018-07-28T23:26:17.084Z,78.08
2018-07-28T23:28:44.076Z,78.33
2018-07-28T23:31:11.190Z,76.67
2018-07-28T23:33:38.168Z,76.16
2018-07-28T23:36:05.170Z,77.12
2018-07-28T23:38:32.169Z,76.87
2018-07-28T23:40:59.156Z,75.70
2018-07-28T23:43:26.153Z,75.63
2018-07-28T23:45:53.165Z,76.35
2018-07-28T23:48:23.457Z,76.85
2018-07-28T23:50:50.418Z,76.35
2018-07-28T23:53:17.756Z,76.45
2018-07-28T23:55:44.729Z,77.12
2018-07-28T23:58:11.701Z,76.38
